• Join FlightAware (Why Join?)
  • Login
  • US Flag GB Flag 
18:31 EDT


 

Airport Tracker/Info


-or-


 

Live Flight TrackerFlight Track Log ✈ UCA3598 ✈ 23-Nov-2013 ✈ KIAD - KBGM

Flight Track Log - Related Links

Times and Time Zones

All times are in EST time to prevent confusion due to time zone crossing. See the UCA3598 flight status page for this flight to view local times or setup timezone preferences in your user account.

Time Position Orientation Groundspeed Altitude Reporting Facility
EST Latitude Longitude Course Direction KTS MPH feet Rate Location/Type
23:00 38.9500 -77.5000 North 126 145 2,200  Level Potomac TRACON
23:01 38.9500 -77.5500 270° West 127 146 4,400 1,680 Climbing Potomac TRACON
23:03 39.0178 -77.5928 334° Northwest 118 136 7,700 1,560 Climbing Washington Center
23:04 39.0656 -77.5886 North 159 183 9,500 1,620 Climbing Washington Center
23:05 39.4224 -77.2536 North  Level Estimated
23:05 39.1139 -77.5792 North 171 197 11,000  Level Washington Center
23:06 39.1639 -77.5700 North 176 203 12,200 1,200 Climbing Washington Center
23:07 39.2142 -77.5553 13° North 182 209 13,400 1,200 Climbing Washington Center
23:08 39.2728 -77.5433 North 187 215 14,600 1,140 Climbing Washington Center
23:10 39.3761 -77.5183 11° North 210 242 16,700 1,080 Climbing New York Center
23:11 39.4375 -77.5053 North 210 242 17,800 1,080 Climbing New York Center
23:12 39.5011 -77.4872 12° North 210 242 18,900 600 Climbing New York Center
23:13 39.5719 -77.4508 22° Northeast 242 278 19,000  Climbing New York Center
23:14 39.6494 -77.4097 22° Northeast 282 325 19,000  Level New York Center
23:15 39.7181 -77.3756 21° North 298 343 19,000  Level New York Center
23:16 39.8058 -77.3353 19° North 303 349 19,000  Level New York Center
23:17 39.8767 -77.2986 22° Northeast 298 343 19,000  Level New York Center
23:18 39.9622 -77.2578 20° North 293 337 19,000  Level New York Center
23:19 40.0308 -77.2233 21° North 293 337 19,000  Level New York Center
23:20 40.1167 -77.1797 21° North 298 343 19,000  Level New York Center
23:21 40.1894 -77.1431 21° North 298 343 19,000  Level New York Center
23:22 40.2750 -77.1047 19° North 298 343 19,000  Level New York Center
23:23 40.3436 -77.0672 23° Northeast 298 343 19,000  Level New York Center
23:24 40.4292 -77.0261 20° North 298 343 19,000  Level New York Center
23:25 40.4997 -76.9942 19° North 293 337 19,000  Level New York Center
23:26 40.5833 -76.9497 22° Northeast 293 337 19,000  Level New York Center
23:27 40.6539 -76.9150 20° North 293 337 19,000  Level New York Center
23:28 40.7375 -76.8733 21° North 299 344 19,000  Level New York Center
23:29 40.8081 -76.8383 21° North 294 338 19,000  Level New York Center
23:30 40.8850 -76.7986 21° North 294 338 19,000  Level New York Center
23:31 40.9600 -76.7586 22° Northeast 294 338 19,000 -180 Level New York Center
23:32 41.0369 -76.7214 20° North 294 338 18,700 -420 Descending New York Center
23:33 41.1139 -76.6811 22° Northeast 294 338 18,200 -480 Descending New York Center
23:34 41.1953 -76.6358 23° Northeast 294 338 17,800 -480 Descending New York Center
23:35 41.2719 -76.6011 19° North 294 338 17,300 -540 Descending New York Center
23:36 41.3447 -76.5606 23° Northeast 294 338 16,800 -480 Descending New York Center
23:37 41.4131 -76.5275 20° North 287 330 16,400 -480 Descending New York Center
23:38 41.4858 -76.4894 21° North 282 325 15,900 -780 Descending New York Center
23:39 41.5647 -76.4492 21° North 277 319 14,900 -1,020 Descending New York Center
23:40 41.6375 -76.4108 21° North 277 319 13,900 -1,080 Descending New York Center
23:41 41.7014 -76.3775 21° North 277 319 12,800 -1,380 Descending New York Center
23:42 41.7675 -76.3442 21° North 269 310 11,200 -1,800 Descending New York Center
23:43 41.8339 -76.3078 22° Northeast 240 276 9,200 -1,980 Descending New York Center
23:44 41.8897 -76.2706 26° Northeast 227 261 7,300 -1,920 Descending New York Center
23:45 41.9086 -76.1747 75° East 227 261 5,400 -1,620 Descending New York Center
23:46 41.9250 -76.0925 75° East 244 281 4,100 -720 Descending New York Center
23:47 41.9411 -76.0072 76° East 244 281 4,000 -60 Descending New York Center
23:48 41.9597 -75.9167 75° East 237 273 4,000  Level New York Center
23:49 41.9839 -75.8350 68° East 231 266 4,000  Level New York Center
23:50 42.0300 -75.8328 North 172 198 4,000  Level New York Center
23:51 42.0681 -75.8636 329° Northwest 132 152 4,000  Level New York Center
23:52 42.1022 -75.8942 326° Northwest 138 159 4,000 -300 Level New York Center
23:53 42.1264 -75.9158 326° Northwest 126 145 3,500 -540 Descending New York Center
23:54 42.1506 -75.9344 330° Northwest 109 125 3,000 -600 Descending New York Center
23:55 42.1767 -75.9558 329° Northwest 109 125 2,300 -720 Descending New York Center
23:57 42.2000 -75.9667 329° Northwest  Level FlightAware Approximate
00:04 42.2084 -75.9796 329° Northwest  Level Estimated